sensor_id;sensor_type;location;lat;lon;timestamp;pressure;altitude;pressure_sealevel;temperature;humidity
68793;BME280;55778;54.346;10.210;2023-03-18T00:01:32;100277.41;;;9.93;73.16
68793;BME280;55778;54.346;10.210;2023-03-18T00:03:58;100275.00;;;9.90;73.40
68793;BME280;55778;54.346;10.210;2023-03-18T00:06:24;100272.56;;;9.87;73.59
68793;BME280;55778;54.346;10.210;2023-03-18T00:08:49;100274.91;;;9.82;73.40
68793;BME280;55778;54.346;10.210;2023-03-18T00:11:16;100282.50;;;9.78;73.90
68793;BME280;55778;54.346;10.210;2023-03-18T00:13:43;100276.34;;;9.76;74.18
68793;BME280;55778;54.346;10.210;2023-03-18T00:16:10;100280.09;;;9.75;73.94
68793;BME280;55778;54.346;10.210;2023-03-18T00:18:37;100276.22;;;9.78;74.01
68793;BME280;55778;54.346;10.210;2023-03-18T00:21:03;100266.66;;;9.74;74.25
68793;BME280;55778;54.346;10.210;2023-03-18T00:23:30;100278.84;;;9.70;74.47
68793;BME280;55778;54.346;10.210;2023-03-18T00:25:56;100283.88;;;9.65;74.66
68793;BME280;55778;54.346;10.210;2023-03-18T00:28:23;100275.97;;;9.71;73.98
68793;BME280;55778;54.346;10.210;2023-03-18T00:30:49;100273.09;;;9.73;73.80
68793;BME280;55778;54.346;10.210;2023-03-18T00:33:16;100268.34;;;9.75;73.83
68793;BME280;55778;54.346;10.210;2023-03-18T00:35:42;100269.97;;;9.68;74.12
68793;BME280;55778;54.346;10.210;2023-03-18T00:38:10;100276.28;;;9.68;74.20
68793;BME280;55778;54.346;10.210;2023-03-18T00:40:48;100269.97;;;9.68;74.06
68793;BME280;55778;54.346;10.210;2023-03-18T00:43:26;100275.72;;;9.65;74.30
68793;BME280;55778;54.346;10.210;2023-03-18T00:45:55;100266.00;;;9.62;74.36
68793;BME280;55778;54.346;10.210;2023-03-18T00:48:22;100264.44;;;9.60;74.80
68793;BME280;55778;54.346;10.210;2023-03-18T00:50:48;100255.56;;;9.58;74.57
68793;BME280;55778;54.346;10.210;2023-03-18T00:53:14;100247.72;;;9.55;74.77
68793;BME280;55778;54.346;10.210;2023-03-18T00:55:40;100267.22;;;9.50;75.07
68793;BME280;55778;54.346;10.210;2023-03-18T00:58:07;100263.47;;;9.51;74.85
68793;BME280;55778;54.346;10.210;2023-03-18T01:00:33;100260.75;;;9.51;74.98
68793;BME280;55778;54.346;10.210;2023-03-18T01:02:59;100270.94;;;9.49;74.75
68793;BME280;55778;54.346;10.210;2023-03-18T01:05:25;100265.81;;;9.46;74.94
68793;BME280;55778;54.346;10.210;2023-03-18T01:07:51;100261.34;;;9.45;75.19
68793;BME280;55778;54.346;10.210;2023-03-18T01:10:17;100267.81;;;9.44;75.27
68793;BME280;55778;54.346;10.210;2023-03-18T01:12:44;100264.53;;;9.41;75.62
68793;BME280;55778;54.346;10.210;2023-03-18T01:15:16;100269.28;;;9.39;75.66
68793;BME280;55778;54.346;10.210;2023-03-18T01:17:43;100257.38;;;9.40;75.64
68793;BME280;55778;54.346;10.210;2023-03-18T01:20:10;100262.69;;;9.41;75.63
68793;BME280;55778;54.346;10.210;2023-03-18T01:22:37;100265.09;;;9.44;75.75
68793;BME280;55778;54.346;10.210;2023-03-18T01:25:06;100253.34;;;9.44;75.67
68793;BME280;55778;54.346;10.210;2023-03-18T01:27:32;100256.94;;;9.44;75.92
68793;BME280;55778;54.346;10.210;2023-03-18T01:29:58;100257.81;;;9.45;75.62
68793;BME280;55778;54.346;10.210;2023-03-18T01:32:24;100250.47;;;9.45;75.80
68793;BME280;55778;54.346;10.210;2023-03-18T01:34:49;100260.22;;;9.48;75.68
68793;BME280;55778;54.346;10.210;2023-03-18T01:37:14;100268.22;;;9.49;75.81
68793;BME280;55778;54.346;10.210;2023-03-18T01:39:40;100261.06;;;9.48;75.85
68793;BME280;55778;54.346;10.210;2023-03-18T01:42:05;100262.94;;;9.48;75.86
68793;BME280;55778;54.346;10.210;2023-03-18T01:44:31;100260.91;;;9.50;75.73
68793;BME280;55778;54.346;10.210;2023-03-18T01:46:56;100259.91;;;9.51;75.78
68793;BME280;55778;54.346;10.210;2023-03-18T01:49:34;100252.22;;;9.46;75.91
68793;BME280;55778;54.346;10.210;2023-03-18T01:52:10;100257.50;;;9.48;75.99
68793;BME280;55778;54.346;10.210;2023-03-18T01:54:45;100252.91;;;9.48;75.86
68793;BME280;55778;54.346;10.210;2023-03-18T01:57:12;100248.31;;;9.49;75.96
68793;BME280;55778;54.346;10.210;2023-03-18T01:59:41;100247.59;;;9.47;75.95
68793;BME280;55778;54.346;10.210;2023-03-18T02:02:09;100237.91;;;9.44;76.21
68793;BME280;55778;54.346;10.210;2023-03-18T02:04:46;100247.59;;;9.47;77.12
68793;BME280;55778;54.346;10.210;2023-03-18T02:07:19;100241.63;;;9.43;77.89
68793;BME280;55778;54.346;10.210;2023-03-18T02:09:46;100240.78;;;9.43;78.02
68793;BME280;55778;54.346;10.210;2023-03-18T02:12:14;100240.31;;;9.47;77.59
68793;BME280;55778;54.346;10.210;2023-03-18T02:14:41;100238.63;;;9.46;77.43
68793;BME280;55778;54.346;10.210;2023-03-18T02:17:13;100255.09;;;9.45;77.41
68793;BME280;55778;54.346;10.210;2023-03-18T02:19:53;100250.47;;;9.45;77.51
68793;BME280;55778;54.346;10.210;2023-03-18T02:22:27;100253.06;;;9.47;77.42
68793;BME280;55778;54.346;10.210;2023-03-18T02:27:40;100261.78;;;9.50;77.44
68793;BME280;55778;54.346;10.210;2023-03-18T02:30:17;100259.78;;;9.52;77.11
68793;BME280;55778;54.346;10.210;2023-03-18T02:32:44;100258.34;;;9.48;77.35
68793;BME280;55778;54.346;10.210;2023-03-18T02:35:12;100265.81;;;9.46;77.16
68793;BME280;55778;54.346;10.210;2023-03-18T02:37:38;100261.22;;;9.47;77.13
68793;BME280;55778;54.346;10.210;2023-03-18T02:40:36;100253.75;;;9.49;77.63
68793;BME280;55778;54.346;10.210;2023-03-18T02:43:30;100251.03;;;9.49;77.71
68793;BME280;55778;54.346;10.210;2023-03-18T02:48:45;100259.44;;;9.55;78.19
68793;BME280;55778;54.346;10.210;2023-03-18T02:51:13;100256.72;;;9.55;78.20
68793;BME280;55778;54.346;10.210;2023-03-18T02:53:39;100261.47;;;9.53;78.60
68793;BME280;55778;54.346;10.210;2023-03-18T02:56:05;100264.78;;;9.47;78.83
68793;BME280;55778;54.346;10.210;2023-03-18T02:58:31;100254.63;;;9.49;79.43
68793;BME280;55778;54.346;10.210;2023-03-18T03:00:57;100262.38;;;9.44;79.84
68793;BME280;55778;54.346;10.210;2023-03-18T03:03:23;100257.25;;;9.41;81.04
68793;BME280;55778;54.346;10.210;2023-03-18T03:05:49;100258.00;;;9.34;81.75
68793;BME280;55778;54.346;10.210;2023-03-18T03:08:14;100254.31;;;9.25;82.61
68793;BME280;55778;54.346;10.210;2023-03-18T03:10:40;100264.06;;;9.18;83.62
68793;BME280;55778;54.346;10.210;2023-03-18T03:13:06;100263.22;;;9.18;83.87
68793;BME280;55778;54.346;10.210;2023-03-18T03:15:34;100254.63;;;9.13;85.04
68793;BME280;55778;54.346;10.210;2023-03-18T03:18:01;100258.41;;;9.02;85.68
68793;BME280;55778;54.346;10.210;2023-03-18T03:20:26;100257.41;;;9.03;86.54
68793;BME280;55778;54.346;10.210;2023-03-18T03:22:52;100250.38;;;9.01;86.39
68793;BME280;55778;54.346;10.210;2023-03-18T03:25:18;100264.69;;;9.03;86.17
68793;BME280;55778;54.346;10.210;2023-03-18T03:27:43;100258.25;;;9.04;86.64
68793;BME280;55778;54.346;10.210;2023-03-18T03:30:11;100255.69;;;9.02;86.73
68793;BME280;55778;54.346;10.210;2023-03-18T03:32:36;100259.97;;;9.05;86.52
68793;BME280;55778;54.346;10.210;2023-03-18T03:35:03;100259.13;;;9.04;85.88
68793;BME280;55778;54.346;10.210;2023-03-18T03:37:29;100259.13;;;9.04;86.07
68793;BME280;55778;54.346;10.210;2023-03-18T03:39:54;100262.56;;;9.06;85.51
68793;BME280;55778;54.346;10.210;2023-03-18T03:42:20;100258.97;;;9.06;85.53
68793;BME280;55778;54.346;10.210;2023-03-18T03:44:45;100258.81;;;9.07;86.31
68793;BME280;55778;54.346;10.210;2023-03-18T03:47:11;100259.69;;;9.08;85.87
68793;BME280;55778;54.346;10.210;2023-03-18T03:49:37;100248.81;;;9.08;85.83
68793;BME280;55778;54.346;10.210;2023-03-18T03:52:03;100255.09;;;9.08;86.24
68793;BME280;55778;54.346;10.210;2023-03-18T03:54:28;100265.13;;;9.08;85.81
68793;BME280;55778;54.346;10.210;2023-03-18T03:56:54;100258.53;;;9.10;86.29
68793;BME280;55778;54.346;10.210;2023-03-18T03:59:20;100267.25;;;9.04;87.02
68793;BME280;55778;54.346;10.210;2023-03-18T04:01:45;100271.97;;;9.02;86.57
68793;BME280;55778;54.346;10.210;2023-03-18T04:04:11;100266.56;;;9.02;87.04
68793;BME280;55778;54.346;10.210;2023-03-18T04:06:37;100264.84;;;9.01;87.13
68793;BME280;55778;54.346;10.210;2023-03-18T04:09:03;100273.00;;;9.01;86.73
68793;BME280;55778;54.346;10.210;2023-03-18T04:11:28;100269.97;;;9.04;86.82
68793;BME280;55778;54.346;10.210;2023-03-18T04:13:55;100277.13;;;9.05;86.34
68793;BME280;55778;54.346;10.210;2023-03-18T04:16:20;100279.41;;;9.10;87.01
68793;BME280;55778;54.346;10.210;2023-03-18T04:18:46;100280.56;;;9.07;87.09
68793;BME280;55778;54.346;10.210;2023-03-18T04:21:11;100290.28;;;9.10;87.08
68793;BME280;55778;54.346;10.210;2023-03-18T04:23:37;100295.25;;;9.14;87.08
68793;BME280;55778;54.346;10.210;2023-03-18T04:26:03;100299.16;;;9.12;86.77
68793;BME280;55778;54.346;10.210;2023-03-18T04:28:29;100294.00;;;9.09;86.84
68793;BME280;55778;54.346;10.210;2023-03-18T04:30:55;100287.41;;;9.11;87.57
68793;BME280;55778;54.346;10.210;2023-03-18T04:33:21;100269.97;;;9.14;87.73
68793;BME280;55778;54.346;10.210;2023-03-18T04:35:47;100266.09;;;9.16;87.43
68793;BME280;55778;54.346;10.210;2023-03-18T04:38:13;100274.53;;;9.13;87.45
68793;BME280;55778;54.346;10.210;2023-03-18T04:40:38;100282.13;;;9.10;87.93
68793;BME280;55778;54.346;10.210;2023-03-18T04:43:03;100278.13;;;9.14;87.91
68793;BME280;55778;54.346;10.210;2023-03-18T04:45:29;100275.06;;;9.17;88.05
68793;BME280;55778;54.346;10.210;2023-03-18T04:47:54;100254.19;;;9.17;87.78
68793;BME280;55778;54.346;10.210;2023-03-18T04:50:20;100267.19;;;9.23;88.08
68793;BME280;55778;54.346;10.210;2023-03-18T04:52:45;100280.50;;;9.26;87.79
68793;BME280;55778;54.346;10.210;2023-03-18T04:55:12;100290.19;;;9.29;87.90
68793;BME280;55778;54.346;10.210;2023-03-18T04:57:38;100280.50;;;9.26;87.47
68793;BME280;55778;54.346;10.210;2023-03-18T05:00:08;100275.47;;;9.31;87.26
68793;BME280;55778;54.346;10.210;2023-03-18T05:02:36;100279.88;;;9.32;87.42
68793;BME280;55778;54.346;10.210;2023-03-18T05:05:01;100273.44;;;9.33;87.24
68793;BME280;55778;54.346;10.210;2023-03-18T05:07:27;100275.16;;;9.34;87.78
68793;BME280;55778;54.346;10.210;2023-03-18T05:09:53;100275.72;;;9.38;87.24
68793;BME280;55778;54.346;10.210;2023-03-18T05:12:18;100262.97;;;9.38;87.70
68793;BME280;55778;54.346;10.210;2023-03-18T05:14:44;100270.84;;;9.41;87.67
68793;BME280;55778;54.346;10.210;2023-03-18T05:17:11;100268.13;;;9.41;87.74
68793;BME280;55778;54.346;10.210;2023-03-18T05:19:44;100270.28;;;9.38;87.90
68793;BME280;55778;54.346;10.210;2023-03-18T05:22:11;100278.13;;;9.41;87.84
68793;BME280;55778;54.346;10.210;2023-03-18T05:24:37;100271.94;;;9.48;87.66
68793;BME280;55778;54.346;10.210;2023-03-18T05:27:02;100278.97;;;9.51;87.72
68793;BME280;55778;54.346;10.210;2023-03-18T05:29:28;100274.50;;;9.50;87.92
68793;BME280;55778;54.346;10.210;2023-03-18T05:31:53;100284.06;;;9.54;87.76
68793;BME280;55778;54.346;10.210;2023-03-18T05:34:19;100283.09;;;9.55;87.63
68793;BME280;55778;54.346;10.210;2023-03-18T05:36:44;100294.88;;;9.46;88.43
68793;BME280;55778;54.346;10.210;2023-03-18T05:39:10;100297.22;;;9.58;87.84
68793;BME280;55778;54.346;10.210;2023-03-18T05:41:35;100293.91;;;9.64;88.20
68793;BME280;55778;54.346;10.210;2023-03-18T05:44:01;100291.19;;;9.64;88.62
68793;BME280;55778;54.346;10.210;2023-03-18T05:46:26;100283.16;;;9.63;88.60
68793;BME280;55778;54.346;10.210;2023-03-18T05:48:53;100290.56;;;9.70;88.42
68793;BME280;55778;54.346;10.210;2023-03-18T05:51:18;100298.34;;;9.65;88.62
68793;BME280;55778;54.346;10.210;2023-03-18T05:53:44;100292.59;;;9.68;88.74
68793;BME280;55778;54.346;10.210;2023-03-18T05:56:10;100293.59;;;9.67;88.92
68793;BME280;55778;54.346;10.210;2023-03-18T05:58:36;100302.16;;;9.72;88.84
68793;BME280;55778;54.346;10.210;2023-03-18T06:01:02;100303.56;;;9.76;88.90
68793;BME280;55778;54.346;10.210;2023-03-18T06:03:28;100297.44;;;9.74;88.94
68793;BME280;55778;54.346;10.210;2023-03-18T06:05:54;100307.00;;;9.78;89.07
68793;BME280;55778;54.346;10.210;2023-03-18T06:08:19;100309.28;;;9.83;88.95
68793;BME280;55778;54.346;10.210;2023-03-18T06:10:45;100308.56;;;9.81;89.08
68793;BME280;55778;54.346;10.210;2023-03-18T06:13:11;100316.72;;;9.81;89.11
68793;BME280;55778;54.346;10.210;2023-03-18T06:15:37;100312.16;;;9.81;89.01
68793;BME280;55778;54.346;10.210;2023-03-18T06:18:03;100314.72;;;9.83;89.21
68793;BME280;55778;54.346;10.210;2023-03-18T06:20:30;100320.00;;;9.84;89.58
68793;BME280;55778;54.346;10.210;2023-03-18T06:22:55;100330.19;;;9.82;89.51
68793;BME280;55778;54.346;10.210;2023-03-18T06:25:22;100319.28;;;9.82;89.70
68793;BME280;55778;54.346;10.210;2023-03-18T06:27:49;100312.88;;;9.83;89.62
68793;BME280;55778;54.346;10.210;2023-03-18T06:30:15;100335.47;;;9.84;89.58
68793;BME280;55778;54.346;10.210;2023-03-18T06:32:41;100322.56;;;9.86;90.04
68793;BME280;55778;54.346;10.210;2023-03-18T06:35:07;100330.97;;;9.92;89.63
68793;BME280;55778;54.346;10.210;2023-03-18T06:37:33;100337.53;;;9.99;89.42
68793;BME280;55778;54.346;10.210;2023-03-18T06:39:59;100337.69;;;9.98;89.43
68793;BME280;55778;54.346;10.210;2023-03-18T06:42:24;100329.69;;;9.96;89.50
68793;BME280;55778;54.346;10.210;2023-03-18T06:44:50;100334.25;;;9.96;89.55
68793;BME280;55778;54.346;10.210;2023-03-18T06:47:20;100338.94;;;10.03;89.75
68793;BME280;55778;54.346;10.210;2023-03-18T06:49:47;100342.94;;;10.09;89.29
68793;BME280;55778;54.346;10.210;2023-03-18T06:52:13;100343.19;;;10.16;89.03
68793;BME280;55778;54.346;10.210;2023-03-18T06:54:39;100342.63;;;10.12;89.16
68793;BME280;55778;54.346;10.210;2023-03-18T06:57:05;100345.63;;;10.19;88.91
68793;BME280;55778;54.346;10.210;2023-03-18T06:59:31;100343.34;;;10.14;89.13
68793;BME280;55778;54.346;10.210;2023-03-18T07:01:56;100346.19;;;10.22;89.28
68793;BME280;55778;54.346;10.210;2023-03-18T07:04:22;100347.88;;;10.23;89.03
68793;BME280;55778;54.346;10.210;2023-03-18T07:06:48;100354.81;;;10.18;89.01
68793;BME280;55778;54.346;10.210;2023-03-18T07:09:14;100358.63;;;10.25;88.84
68793;BME280;55778;54.346;10.210;2023-03-18T07:11:41;100355.44;;;10.29;89.14
68793;BME280;55778;54.346;10.210;2023-03-18T07:14:06;100358.53;;;10.34;88.70
68793;BME280;55778;54.346;10.210;2023-03-18T07:16:32;100359.50;;;10.43;88.45
68793;BME280;55778;54.346;10.210;2023-03-18T07:19:00;100358.31;;;10.45;88.08
68793;BME280;55778;54.346;10.210;2023-03-18T07:21:26;100367.06;;;10.49;88.34
68793;BME280;55778;54.346;10.210;2023-03-18T07:23:56;100358.06;;;10.39;88.43
68793;BME280;55778;54.346;10.210;2023-03-18T07:26:21;100370.84;;;10.38;88.95
68793;BME280;55778;54.346;10.210;2023-03-18T07:28:47;100372.03;;;10.53;88.14
68793;BME280;55778;54.346;10.210;2023-03-18T07:31:13;100365.16;;;10.49;88.49
68793;BME280;55778;54.346;10.210;2023-03-18T07:33:38;100378.25;;;10.63;87.89
68793;BME280;55778;54.346;10.210;2023-03-18T07:36:04;100381.19;;;10.70;87.50
68793;BME280;55778;54.346;10.210;2023-03-18T07:38:30;100394.34;;;10.57;87.79
68793;BME280;55778;54.346;10.210;2023-03-18T07:40:55;100409.78;;;10.66;87.77
68793;BME280;55778;54.346;10.210;2023-03-18T07:43:21;100410.09;;;10.63;87.83
68793;BME280;55778;54.346;10.210;2023-03-18T07:45:46;100413.75;;;10.54;88.38
68793;BME280;55778;54.346;10.210;2023-03-18T07:48:12;100403.72;;;10.54;88.78
68793;BME280;55778;54.346;10.210;2023-03-18T07:50:38;100401.38;;;10.59;88.25
68793;BME280;55778;54.346;10.210;2023-03-18T07:53:05;100411.97;;;10.62;88.58
68793;BME280;55778;54.346;10.210;2023-03-18T07:55:30;100410.03;;;10.72;87.93
68793;BME280;55778;54.346;10.210;2023-03-18T07:57:56;100411.34;;;10.86;88.25
68793;BME280;55778;54.346;10.210;2023-03-18T08:00:21;100413.53;;;10.82;87.66
68793;BME280;55778;54.346;10.210;2023-03-18T08:02:47;100408.47;;;10.87;87.47
68793;BME280;55778;54.346;10.210;2023-03-18T08:05:12;100410.13;;;10.98;87.19
68793;BME280;55778;54.346;10.210;2023-03-18T08:07:38;100413.03;;;11.04;86.94
68793;BME280;55778;54.346;10.210;2023-03-18T08:10:04;100407.22;;;10.99;87.07
68793;BME280;55778;54.346;10.210;2023-03-18T08:12:30;100402.69;;;11.08;87.07
68793;BME280;55778;54.346;10.210;2023-03-18T08:14:56;100409.97;;;11.68;85.13
68793;BME280;55778;54.346;10.210;2023-03-18T08:17:22;100404.72;;;12.08;82.38
68793;BME280;55778;54.346;10.210;2023-03-18T08:19:47;100399.34;;;12.32;81.18
68793;BME280;55778;54.346;10.210;2023-03-18T08:22:13;100406.06;;;12.46;80.03
68793;BME280;55778;54.346;10.210;2023-03-18T08:24:39;100419.91;;;12.44;79.92
68793;BME280;55778;54.346;10.210;2023-03-18T08:27:05;100415.00;;;12.14;81.27
68793;BME280;55778;54.346;10.210;2023-03-18T08:29:31;100424.81;;;11.99;82.06
68793;BME280;55778;54.346;10.210;2023-03-18T08:31:57;100419.72;;;11.70;83.36
68793;BME280;55778;54.346;10.210;2023-03-18T08:34:23;100410.06;;;11.84;83.09
68793;BME280;55778;54.346;10.210;2023-03-18T08:36:48;100413.41;;;12.37;80.77
68793;BME280;55778;54.346;10.210;2023-03-18T08:39:14;100415.69;;;12.16;81.34
68793;BME280;55778;54.346;10.210;2023-03-18T08:41:39;100417.69;;;12.56;80.36
68793;BME280;55778;54.346;10.210;2023-03-18T08:44:06;100415.38;;;12.77;78.69
68793;BME280;55778;54.346;10.210;2023-03-18T08:46:34;100423.06;;;12.81;79.08
68793;BME280;55778;54.346;10.210;2023-03-18T08:48:59;100428.53;;;12.81;78.42
68793;BME280;55778;54.346;10.210;2023-03-18T08:51:25;100428.16;;;12.68;79.18
68793;BME280;55778;54.346;10.210;2023-03-18T08:53:50;100428.84;;;12.70;78.75
68793;BME280;55778;54.346;10.210;2023-03-18T08:56:16;100432.56;;;12.53;79.19
68793;BME280;55778;54.346;10.210;2023-03-18T08:58:42;100432.44;;;12.71;79.25
68793;BME280;55778;54.346;10.210;2023-03-18T09:01:11;100437.19;;;12.61;79.33
68793;BME280;55778;54.346;10.210;2023-03-18T09:03:36;100451.75;;;12.69;79.47
68793;BME280;55778;54.346;10.210;2023-03-18T09:06:02;100447.44;;;12.59;79.47
68793;BME280;55778;54.346;10.210;2023-03-18T09:08:29;100452.69;;;12.52;80.11
68793;BME280;55778;54.346;10.210;2023-03-18T09:10:55;100461.78;;;12.53;80.30
68793;BME280;55778;54.346;10.210;2023-03-18T09:13:21;100465.66;;;12.42;80.44
68793;BME280;55778;54.346;10.210;2023-03-18T09:15:47;100466.25;;;12.62;80.02
68793;BME280;55778;54.346;10.210;2023-03-18T09:18:14;100465.56;;;12.68;80.32
68793;BME280;55778;54.346;10.210;2023-03-18T09:20:40;100480.28;;;12.75;79.42
68793;BME280;55778;54.346;10.210;2023-03-18T09:23:07;100477.22;;;12.78;79.52
68793;BME280;55778;54.346;10.210;2023-03-18T09:25:34;100485.28;;;12.87;79.40
68793;BME280;55778;54.346;10.210;2023-03-18T09:27:59;100491.78;;;12.94;78.97
68793;BME280;55778;54.346;10.210;2023-03-18T09:30:25;100490.69;;;13.13;77.83
68793;BME280;55778;54.346;10.210;2023-03-18T09:32:52;100486.78;;;13.39;77.28
68793;BME280;55778;54.346;10.210;2023-03-18T09:35:18;100481.63;;;13.28;78.13
68793;BME280;55778;54.346;10.210;2023-03-18T09:37:44;100486.91;;;13.22;77.98
68793;BME280;55778;54.346;10.210;2023-03-18T09:40:17;100481.47;;;13.38;76.85
68793;BME280;55778;54.346;10.210;2023-03-18T09:42:57;100486.56;;;13.25;77.00
68793;BME280;55778;54.346;10.210;2023-03-18T09:53:41;100488.47;;;13.40;77.03
68793;BME280;55778;54.346;10.210;2023-03-18T09:56:15;100484.03;;;13.31;76.99
68793;BME280;55778;54.346;10.210;2023-03-18T09:59:04;100498.22;;;13.51;76.96
68793;BME280;55778;54.346;10.210;2023-03-18T10:01:33;100485.72;;;13.16;77.46
68793;BME280;55778;54.346;10.210;2023-03-18T10:04:09;100501.13;;;13.41;77.23
68793;BME280;55778;54.346;10.210;2023-03-18T10:06:39;100502.78;;;13.10;78.06
68793;BME280;55778;54.346;10.210;2023-03-18T10:09:13;100506.25;;;13.44;78.45
68793;BME280;55778;54.346;10.210;2023-03-18T10:11:46;100511.75;;;13.76;76.56
68793;BME280;55778;54.346;10.210;2023-03-18T10:14:26;100515.31;;;14.09;74.64
68793;BME280;55778;54.346;10.210;2023-03-18T10:17:15;100515.06;;;14.81;72.13
68793;BME280;55778;54.346;10.210;2023-03-18T10:19:46;100518.09;;;14.56;73.32
68793;BME280;55778;54.346;10.210;2023-03-18T10:24:57;100518.06;;;14.64;72.70
68793;BME280;55778;54.346;10.210;2023-03-18T10:27:38;100530.69;;;14.10;74.46
68793;BME280;55778;54.346;10.210;2023-03-18T10:30:35;100529.03;;;13.85;76.04
68793;BME280;55778;54.346;10.210;2023-03-18T10:33:09;100531.25;;;13.81;76.44
68793;BME280;55778;54.346;10.210;2023-03-18T10:38:17;100527.59;;;13.09;80.36
68793;BME280;55778;54.346;10.210;2023-03-18T10:40:46;100533.25;;;13.15;80.05
68793;BME280;55778;54.346;10.210;2023-03-18T10:43:17;100533.81;;;13.51;80.20
68793;BME280;55778;54.346;10.210;2023-03-18T10:45:45;100542.56;;;13.54;80.45
68793;BME280;55778;54.346;10.210;2023-03-18T10:51:04;100569.38;;;13.43;80.91
68793;BME280;55778;54.346;10.210;2023-03-18T10:53:43;100568.84;;;13.31;82.27
68793;BME280;55778;54.346;10.210;2023-03-18T10:56:12;100570.66;;;12.65;86.50
68793;BME280;55778;54.346;10.210;2023-03-18T10:58:38;100568.66;;;12.42;88.08
68793;BME280;55778;54.346;10.210;2023-03-18T11:01:06;100563.28;;;12.58;89.40
68793;BME280;55778;54.346;10.210;2023-03-18T11:03:34;100560.25;;;13.02;86.99
68793;BME280;55778;54.346;10.210;2023-03-18T11:06:05;100558.09;;;12.80;86.31
68793;BME280;55778;54.346;10.210;2023-03-18T11:08:38;100544.97;;;12.92;86.71
68793;BME280;55778;54.346;10.210;2023-03-18T11:13:51;100550.94;;;13.85;83.96
68793;BME280;55778;54.346;10.210;2023-03-18T11:16:26;100549.75;;;13.55;84.25
68793;BME280;55778;54.346;10.210;2023-03-18T11:18:55;100544.75;;;13.59;83.59
68793;BME280;55778;54.346;10.210;2023-03-18T11:21:22;100545.59;;;13.27;83.85
68793;BME280;55778;54.346;10.210;2023-03-18T11:23:58;100552.47;;;13.63;82.33
68793;BME280;55778;54.346;10.210;2023-03-18T11:26:55;100554.00;;;13.42;82.69
68793;BME280;55778;54.346;10.210;2023-03-18T11:29:27;100549.91;;;13.62;81.64
68793;BME280;55778;54.346;10.210;2023-03-18T11:31:56;100558.22;;;13.20;83.70
68793;BME280;55778;54.346;10.210;2023-03-18T11:34:30;100556.91;;;12.91;85.09
68793;BME280;55778;54.346;10.210;2023-03-18T11:37:05;100559.94;;;13.21;84.97
68793;BME280;55778;54.346;10.210;2023-03-18T11:39:37;100566.50;;;13.68;82.10
68793;BME280;55778;54.346;10.210;2023-03-18T11:42:16;100568.22;;;13.69;82.02
68793;BME280;55778;54.346;10.210;2023-03-18T11:44:42;100569.44;;;13.91;80.95
68793;BME280;55778;54.346;10.210;2023-03-18T11:47:12;100564.28;;;14.12;79.16
68793;BME280;55778;54.346;10.210;2023-03-18T11:49:39;100563.81;;;15.10;76.69
68793;BME280;55778;54.346;10.210;2023-03-18T11:55:44;100578.88;;;14.75;75.30
68793;BME280;55778;54.346;10.210;2023-03-18T11:59:10;100573.59;;;15.04;74.96
68793;BME280;55778;54.346;10.210;2023-03-18T12:01:27;100574.63;;;14.65;76.25
68793;BME280;55778;54.346;10.210;2023-03-18T12:06:32;100585.00;;;14.23;78.08
68793;BME280;55778;54.346;10.210;2023-03-18T12:09:28;100583.81;;;13.93;79.82
68793;BME280;55778;54.346;10.210;2023-03-18T12:14:48;100586.03;;;13.65;82.33
68793;BME280;55778;54.346;10.210;2023-03-18T12:17:24;100589.78;;;14.13;79.68
68793;BME280;55778;54.346;10.210;2023-03-18T12:33:58;100604.69;;;14.10;80.25
68793;BME280;55778;54.346;10.210;2023-03-18T12:37:07;100617.69;;;14.08;79.38
68793;BME280;55778;54.346;10.210;2023-03-18T12:45:00;100633.78;;;13.79;80.31
68793;BME280;55778;54.346;10.210;2023-03-18T12:50:22;100624.56;;;14.12;78.82
68793;BME280;55778;54.346;10.210;2023-03-18T12:53:00;100635.50;;;13.88;79.96
68793;BME280;55778;54.346;10.210;2023-03-18T12:55:30;100639.91;;;13.57;81.71
68793;BME280;55778;54.346;10.210;2023-03-18T13:10:57;100642.38;;;13.26;81.67
68793;BME280;55778;54.346;10.210;2023-03-18T13:13:30;100646.31;;;13.16;82.43
68793;BME280;55778;54.346;10.210;2023-03-18T13:15:58;100648.63;;;13.03;82.43
68793;BME280;55778;54.346;10.210;2023-03-18T13:18:40;100654.16;;;12.85;84.46
68793;BME280;55778;54.346;10.210;2023-03-18T13:21:13;100658.31;;;12.97;83.32
68793;BME280;55778;54.346;10.210;2023-03-18T13:43:14;100657.47;;;14.52;75.63
68793;BME280;55778;54.346;10.210;2023-03-18T13:45:43;100666.78;;;13.53;79.57
68793;BME280;55778;54.346;10.210;2023-03-18T13:48:14;100666.09;;;13.51;80.08
68793;BME280;55778;54.346;10.210;2023-03-18T13:50:42;100666.34;;;13.90;78.51
68793;BME280;55778;54.346;10.210;2023-03-18T13:53:24;100671.50;;;14.09;77.35
68793;BME280;55778;54.346;10.210;2023-03-18T13:56:01;100659.81;;;13.99;77.31
68793;BME280;55778;54.346;10.210;2023-03-18T13:58:35;100657.56;;;13.78;77.66
68793;BME280;55778;54.346;10.210;2023-03-18T14:01:15;100661.03;;;14.04;76.38
68793;BME280;55778;54.346;10.210;2023-03-18T14:08:51;100659.47;;;13.78;79.55
68793;BME280;55778;54.346;10.210;2023-03-18T14:13:44;100652.66;;;14.22;76.56
68793;BME280;55778;54.346;10.210;2023-03-18T14:16:15;100661.03;;;14.13;76.17
68793;BME280;55778;54.346;10.210;2023-03-18T14:19:16;100651.41;;;13.68;78.25
68793;BME280;55778;54.346;10.210;2023-03-18T14:21:44;100659.31;;;13.79;78.62
68793;BME280;55778;54.346;10.210;2023-03-18T14:26:47;100670.28;;;13.79;79.39
68793;BME280;55778;54.346;10.210;2023-03-18T14:29:42;100669.59;;;14.09;76.82
68793;BME280;55778;54.346;10.210;2023-03-18T14:40:26;100667.19;;;13.82;78.38